sensor_id;sensor_type;location;lat;lon;timestamp;P1;durP1;ratioP1;P2;durP2;ratioP2
26062;SDS011;13837;48.562;12.108;2022-10-31T00:02:18;25.23;;;16.88;;
26062;SDS011;13837;48.562;12.108;2022-10-31T00:04:44;18.40;;;16.42;;
26062;SDS011;13837;48.562;12.108;2022-10-31T00:07:09;18.02;;;16.17;;
26062;SDS011;13837;48.562;12.108;2022-10-31T00:09:35;20.20;;;16.85;;
26062;SDS011;13837;48.562;12.108;2022-10-31T00:12:01;20.25;;;16.85;;
26062;SDS011;13837;48.562;12.108;2022-10-31T00:14:27;26.77;;;17.75;;
26062;SDS011;13837;48.562;12.108;2022-10-31T00:16:52;23.70;;;17.55;;
26062;SDS011;13837;48.562;12.108;2022-10-31T00:19:18;22.95;;;16.90;;
26062;SDS011;13837;48.562;12.108;2022-10-31T00:21:44;20.85;;;17.63;;
26062;SDS011;13837;48.562;12.108;2022-10-31T00:24:10;20.25;;;18.05;;
26062;SDS011;13837;48.562;12.108;2022-10-31T00:26:36;20.50;;;18.23;;
26062;SDS011;13837;48.562;12.108;2022-10-31T00:29:02;20.83;;;17.75;;
26062;SDS011;13837;48.562;12.108;2022-10-31T00:31:28;25.40;;;16.35;;
26062;SDS011;13837;48.562;12.108;2022-10-31T00:33:54;19.27;;;17.08;;
26062;SDS011;13837;48.562;12.108;2022-10-31T00:36:20;22.08;;;16.83;;
26062;SDS011;13837;48.562;12.108;2022-10-31T00:38:46;23.30;;;16.23;;
26062;SDS011;13837;48.562;12.108;2022-10-31T00:41:13;21.23;;;17.13;;
26062;SDS011;13837;48.562;12.108;2022-10-31T00:43:41;21.77;;;16.60;;
26062;SDS011;13837;48.562;12.108;2022-10-31T00:46:07;30.60;;;17.67;;
26062;SDS011;13837;48.562;12.108;2022-10-31T00:48:33;21.10;;;17.27;;
26062;SDS011;13837;48.562;12.108;2022-10-31T00:50:59;21.98;;;16.70;;
26062;SDS011;13837;48.562;12.108;2022-10-31T00:53:25;18.60;;;16.25;;
26062;SDS011;13837;48.562;12.108;2022-10-31T00:55:51;19.10;;;16.98;;
26062;SDS011;13837;48.562;12.108;2022-10-31T00:58:18;22.45;;;16.30;;
26062;SDS011;13837;48.562;12.108;2022-10-31T01:00:43;20.30;;;16.98;;
26062;SDS011;13837;48.562;12.108;2022-10-31T01:03:09;21.15;;;17.95;;
26062;SDS011;13837;48.562;12.108;2022-10-31T01:05:38;20.48;;;17.50;;
26062;SDS011;13837;48.562;12.108;2022-10-31T01:08:04;23.00;;;17.73;;
26062;SDS011;13837;48.562;12.108;2022-10-31T01:10:29;20.65;;;17.17;;
26062;SDS011;13837;48.562;12.108;2022-10-31T01:12:55;25.25;;;16.92;;
26062;SDS011;13837;48.562;12.108;2022-10-31T01:15:21;25.65;;;17.75;;
26062;SDS011;13837;48.562;12.108;2022-10-31T01:17:51;23.30;;;16.65;;
26062;SDS011;13837;48.562;12.108;2022-10-31T01:20:17;21.42;;;16.92;;
26062;SDS011;13837;48.562;12.108;2022-10-31T01:22:43;19.05;;;16.30;;
26062;SDS011;13837;48.562;12.108;2022-10-31T01:25:09;19.38;;;17.38;;
26062;SDS011;13837;48.562;12.108;2022-10-31T01:27:35;20.63;;;17.35;;
26062;SDS011;13837;48.562;12.108;2022-10-31T01:30:01;23.50;;;17.35;;
26062;SDS011;13837;48.562;12.108;2022-10-31T01:32:27;21.45;;;17.73;;
26062;SDS011;13837;48.562;12.108;2022-10-31T01:34:57;24.15;;;16.50;;
26062;SDS011;13837;48.562;12.108;2022-10-31T01:37:22;20.52;;;16.73;;
26062;SDS011;13837;48.562;12.108;2022-10-31T01:39:48;22.40;;;16.08;;
26062;SDS011;13837;48.562;12.108;2022-10-31T01:42:20;17.58;;;15.73;;
26062;SDS011;13837;48.562;12.108;2022-10-31T01:47:17;19.07;;;16.23;;
26062;SDS011;13837;48.562;12.108;2022-10-31T01:49:48;25.17;;;17.45;;
26062;SDS011;13837;48.562;12.108;2022-10-31T01:55:03;20.15;;;17.08;;
26062;SDS011;13837;48.562;12.108;2022-10-31T01:57:34;21.02;;;16.73;;
26062;SDS011;13837;48.562;12.108;2022-10-31T02:00:07;21.08;;;16.40;;
26062;SDS011;13837;48.562;12.108;2022-10-31T02:02:40;18.85;;;16.33;;
26062;SDS011;13837;48.562;12.108;2022-10-31T02:05:08;20.55;;;17.05;;
26062;SDS011;13837;48.562;12.108;2022-10-31T02:07:45;19.83;;;16.77;;
26062;SDS011;13837;48.562;12.108;2022-10-31T02:12:50;18.92;;;16.90;;
26062;SDS011;13837;48.562;12.108;2022-10-31T02:15:19;18.40;;;16.48;;
26062;SDS011;13837;48.562;12.108;2022-10-31T02:17:44;21.17;;;17.25;;
26062;SDS011;13837;48.562;12.108;2022-10-31T02:20:17;22.35;;;17.33;;
26062;SDS011;13837;48.562;12.108;2022-10-31T02:28:34;23.65;;;18.85;;
26062;SDS011;13837;48.562;12.108;2022-10-31T02:39:26;19.90;;;17.33;;
26062;SDS011;13837;48.562;12.108;2022-10-31T02:45:11;19.45;;;17.20;;
26062;SDS011;13837;48.562;12.108;2022-10-31T02:47:42;21.38;;;18.25;;
26062;SDS011;13837;48.562;12.108;2022-10-31T02:50:21;20.80;;;18.58;;
26062;SDS011;13837;48.562;12.108;2022-10-31T02:52:51;24.27;;;18.48;;
26062;SDS011;13837;48.562;12.108;2022-10-31T02:57:57;22.20;;;19.85;;
26062;SDS011;13837;48.562;12.108;2022-10-31T03:00:34;27.08;;;19.83;;
26062;SDS011;13837;48.562;12.108;2022-10-31T03:05:40;24.38;;;19.80;;
26062;SDS011;13837;48.562;12.108;2022-10-31T03:08:35;31.60;;;20.17;;
26062;SDS011;13837;48.562;12.108;2022-10-31T03:11:12;23.98;;;20.25;;
26062;SDS011;13837;48.562;12.108;2022-10-31T03:16:15;40.58;;;20.48;;
26062;SDS011;13837;48.562;12.108;2022-10-31T03:18:55;28.48;;;20.20;;
26062;SDS011;13837;48.562;12.108;2022-10-31T03:24:04;26.98;;;19.88;;
26062;SDS011;13837;48.562;12.108;2022-10-31T03:26:34;27.15;;;20.17;;
26062;SDS011;13837;48.562;12.108;2022-10-31T03:29:07;22.67;;;19.80;;
26062;SDS011;13837;48.562;12.108;2022-10-31T03:31:40;26.35;;;21.05;;
26062;SDS011;13837;48.562;12.108;2022-10-31T03:34:29;23.05;;;20.13;;
26062;SDS011;13837;48.562;12.108;2022-10-31T03:36:58;28.20;;;19.98;;
26062;SDS011;13837;48.562;12.108;2022-10-31T03:39:27;28.45;;;18.63;;
26062;SDS011;13837;48.562;12.108;2022-10-31T03:41:59;24.13;;;19.10;;
26062;SDS011;13837;48.562;12.108;2022-10-31T03:44:30;29.27;;;19.75;;
26062;SDS011;13837;48.562;12.108;2022-10-31T03:47:01;35.72;;;20.17;;
26062;SDS011;13837;48.562;12.108;2022-10-31T03:49:28;33.00;;;19.20;;
26062;SDS011;13837;48.562;12.108;2022-10-31T03:54:41;26.30;;;19.38;;
26062;SDS011;13837;48.562;12.108;2022-10-31T03:57:33;25.88;;;19.73;;
26062;SDS011;13837;48.562;12.108;2022-10-31T04:02:32;28.58;;;18.25;;
26062;SDS011;13837;48.562;12.108;2022-10-31T04:05:00;30.27;;;21.35;;
26062;SDS011;13837;48.562;12.108;2022-10-31T04:07:30;42.20;;;22.45;;
26062;SDS011;13837;48.562;12.108;2022-10-31T04:10:08;30.63;;;19.83;;
26062;SDS011;13837;48.562;12.108;2022-10-31T04:12:36;36.33;;;20.17;;
26062;SDS011;13837;48.562;12.108;2022-10-31T04:15:17;32.13;;;19.67;;
26062;SDS011;13837;48.562;12.108;2022-10-31T04:17:44;30.08;;;19.52;;
26062;SDS011;13837;48.562;12.108;2022-10-31T04:20:15;27.25;;;19.85;;
26062;SDS011;13837;48.562;12.108;2022-10-31T04:22:41;25.65;;;18.42;;
26062;SDS011;13837;48.562;12.108;2022-10-31T04:25:07;33.40;;;19.15;;
26062;SDS011;13837;48.562;12.108;2022-10-31T04:27:33;32.13;;;19.95;;
26062;SDS011;13837;48.562;12.108;2022-10-31T04:29:59;24.48;;;18.77;;
26062;SDS011;13837;48.562;12.108;2022-10-31T04:32:25;26.10;;;18.52;;
26062;SDS011;13837;48.562;12.108;2022-10-31T04:34:52;30.52;;;19.80;;
26062;SDS011;13837;48.562;12.108;2022-10-31T04:37:18;25.33;;;18.73;;
26062;SDS011;13837;48.562;12.108;2022-10-31T04:39:43;33.90;;;20.98;;
26062;SDS011;13837;48.562;12.108;2022-10-31T04:42:29;26.27;;;19.58;;
26062;SDS011;13837;48.562;12.108;2022-10-31T04:44:57;30.93;;;21.67;;
26062;SDS011;13837;48.562;12.108;2022-10-31T04:47:23;31.00;;;19.98;;
26062;SDS011;13837;48.562;12.108;2022-10-31T04:49:49;27.70;;;19.33;;
26062;SDS011;13837;48.562;12.108;2022-10-31T04:52:15;31.02;;;20.73;;
26062;SDS011;13837;48.562;12.108;2022-10-31T04:54:41;27.73;;;20.73;;
26062;SDS011;13837;48.562;12.108;2022-10-31T04:57:25;30.75;;;20.75;;
26062;SDS011;13837;48.562;12.108;2022-10-31T04:59:51;27.63;;;20.60;;
26062;SDS011;13837;48.562;12.108;2022-10-31T05:02:17;28.17;;;20.55;;
26062;SDS011;13837;48.562;12.108;2022-10-31T05:04:49;25.95;;;19.40;;
26062;SDS011;13837;48.562;12.108;2022-10-31T05:07:15;25.08;;;18.80;;
26062;SDS011;13837;48.562;12.108;2022-10-31T05:09:42;20.83;;;18.58;;
26062;SDS011;13837;48.562;12.108;2022-10-31T05:12:07;43.78;;;19.58;;
26062;SDS011;13837;48.562;12.108;2022-10-31T05:14:51;25.88;;;17.80;;
26062;SDS011;13837;48.562;12.108;2022-10-31T05:17:40;24.50;;;18.20;;
26062;SDS011;13837;48.562;12.108;2022-10-31T05:20:21;20.88;;;17.75;;
26062;SDS011;13837;48.562;12.108;2022-10-31T05:23:12;21.88;;;17.42;;
26062;SDS011;13837;48.562;12.108;2022-10-31T05:25:40;20.85;;;18.15;;
26062;SDS011;13837;48.562;12.108;2022-10-31T05:28:06;22.42;;;18.02;;
26062;SDS011;13837;48.562;12.108;2022-10-31T05:30:32;22.35;;;17.05;;
26062;SDS011;13837;48.562;12.108;2022-10-31T05:32:59;21.15;;;17.77;;
26062;SDS011;13837;48.562;12.108;2022-10-31T05:35:43;23.27;;;18.33;;
26062;SDS011;13837;48.562;12.108;2022-10-31T05:38:41;20.52;;;18.15;;
26062;SDS011;13837;48.562;12.108;2022-10-31T05:41:15;24.05;;;19.30;;
26062;SDS011;13837;48.562;12.108;2022-10-31T05:43:44;22.10;;;18.45;;
26062;SDS011;13837;48.562;12.108;2022-10-31T05:46:11;21.17;;;18.42;;
26062;SDS011;13837;48.562;12.108;2022-10-31T05:48:57;30.17;;;20.73;;
26062;SDS011;13837;48.562;12.108;2022-10-31T05:51:41;26.13;;;19.95;;
26062;SDS011;13837;48.562;12.108;2022-10-31T05:54:08;26.45;;;21.13;;
26062;SDS011;13837;48.562;12.108;2022-10-31T05:56:34;24.05;;;20.30;;
26062;SDS011;13837;48.562;12.108;2022-10-31T05:58:59;26.77;;;21.30;;
26062;SDS011;13837;48.562;12.108;2022-10-31T06:01:26;40.58;;;21.98;;
26062;SDS011;13837;48.562;12.108;2022-10-31T06:03:52;35.63;;;21.60;;
26062;SDS011;13837;48.562;12.108;2022-10-31T06:06:19;33.53;;;22.10;;
26062;SDS011;13837;48.562;12.108;2022-10-31T06:08:44;31.80;;;25.83;;
26062;SDS011;13837;48.562;12.108;2022-10-31T06:11:13;27.30;;;22.65;;
26062;SDS011;13837;48.562;12.108;2022-10-31T06:13:57;28.73;;;22.45;;
26062;SDS011;13837;48.562;12.108;2022-10-31T06:16:30;36.42;;;24.85;;
26062;SDS011;13837;48.562;12.108;2022-10-31T06:19:04;28.13;;;22.40;;
26062;SDS011;13837;48.562;12.108;2022-10-31T06:21:29;36.95;;;23.23;;
26062;SDS011;13837;48.562;12.108;2022-10-31T06:23:55;32.17;;;21.85;;
26062;SDS011;13837;48.562;12.108;2022-10-31T06:26:43;49.70;;;24.30;;
26062;SDS011;13837;48.562;12.108;2022-10-31T06:29:09;30.02;;;21.98;;
26062;SDS011;13837;48.562;12.108;2022-10-31T06:31:52;32.25;;;20.02;;
26062;SDS011;13837;48.562;12.108;2022-10-31T06:34:18;28.73;;;20.88;;
26062;SDS011;13837;48.562;12.108;2022-10-31T06:36:45;28.73;;;21.33;;
26062;SDS011;13837;48.562;12.108;2022-10-31T06:39:11;22.95;;;20.35;;
26062;SDS011;13837;48.562;12.108;2022-10-31T06:41:38;25.15;;;19.85;;
26062;SDS011;13837;48.562;12.108;2022-10-31T06:44:05;32.30;;;19.48;;
26062;SDS011;13837;48.562;12.108;2022-10-31T06:46:50;25.73;;;18.67;;
26062;SDS011;13837;48.562;12.108;2022-10-31T06:49:34;19.88;;;17.75;;
26062;SDS011;13837;48.562;12.108;2022-10-31T06:52:02;19.85;;;17.85;;
26062;SDS011;13837;48.562;12.108;2022-10-31T06:54:28;19.65;;;17.65;;
26062;SDS011;13837;48.562;12.108;2022-10-31T06:56:54;19.90;;;17.40;;
26062;SDS011;13837;48.562;12.108;2022-10-31T06:59:20;23.48;;;17.70;;
26062;SDS011;13837;48.562;12.108;2022-10-31T07:02:01;20.60;;;18.40;;
26062;SDS011;13837;48.562;12.108;2022-10-31T07:04:27;27.75;;;18.67;;
26062;SDS011;13837;48.562;12.108;2022-10-31T07:06:53;19.85;;;17.83;;
26062;SDS011;13837;48.562;12.108;2022-10-31T07:09:19;22.55;;;19.25;;
26062;SDS011;13837;48.562;12.108;2022-10-31T07:11:48;36.05;;;21.27;;
26062;SDS011;13837;48.562;12.108;2022-10-31T07:14:17;44.25;;;24.80;;
26062;SDS011;13837;48.562;12.108;2022-10-31T07:16:43;30.73;;;23.27;;
26062;SDS011;13837;48.562;12.108;2022-10-31T07:19:11;38.58;;;24.42;;
26062;SDS011;13837;48.562;12.108;2022-10-31T07:21:37;31.77;;;22.55;;
26062;SDS011;13837;48.562;12.108;2022-10-31T07:24:03;36.25;;;22.60;;
26062;SDS011;13837;48.562;12.108;2022-10-31T07:26:55;27.80;;;21.92;;
26062;SDS011;13837;48.562;12.108;2022-10-31T07:29:20;36.28;;;21.58;;
26062;SDS011;13837;48.562;12.108;2022-10-31T07:31:48;30.13;;;20.45;;
26062;SDS011;13837;48.562;12.108;2022-10-31T07:34:20;41.70;;;20.05;;
26062;SDS011;13837;48.562;12.108;2022-10-31T07:37:04;26.10;;;18.02;;
26062;SDS011;13837;48.562;12.108;2022-10-31T07:39:30;23.20;;;17.38;;
26062;SDS011;13837;48.562;12.108;2022-10-31T07:41:57;46.63;;;17.27;;
26062;SDS011;13837;48.562;12.108;2022-10-31T07:44:24;42.95;;;19.55;;
26062;SDS011;13837;48.562;12.108;2022-10-31T07:47:22;30.00;;;17.63;;
26062;SDS011;13837;48.562;12.108;2022-10-31T07:50:10;29.75;;;17.77;;
26062;SDS011;13837;48.562;12.108;2022-10-31T07:53:02;17.05;;;15.48;;
26062;SDS011;13837;48.562;12.108;2022-10-31T07:55:38;23.63;;;16.85;;
26062;SDS011;13837;48.562;12.108;2022-10-31T07:58:13;50.28;;;17.25;;
26062;SDS011;13837;48.562;12.108;2022-10-31T08:00:41;38.83;;;17.50;;
26062;SDS011;13837;48.562;12.108;2022-10-31T08:03:09;76.82;;;18.20;;
26062;SDS011;13837;48.562;12.108;2022-10-31T08:05:56;20.10;;;15.73;;
26062;SDS011;13837;48.562;12.108;2022-10-31T08:08:40;17.38;;;15.57;;
26062;SDS011;13837;48.562;12.108;2022-10-31T08:11:07;33.28;;;16.35;;
26062;SDS011;13837;48.562;12.108;2022-10-31T08:13:33;69.55;;;16.80;;
26062;SDS011;13837;48.562;12.108;2022-10-31T08:15:59;16.38;;;14.90;;
26062;SDS011;13837;48.562;12.108;2022-10-31T08:18:28;18.30;;;15.63;;
26062;SDS011;13837;48.562;12.108;2022-10-31T08:20:55;15.73;;;14.18;;
26062;SDS011;13837;48.562;12.108;2022-10-31T08:23:21;25.90;;;14.45;;
26062;SDS011;13837;48.562;12.108;2022-10-31T08:25:47;15.57;;;13.98;;
26062;SDS011;13837;48.562;12.108;2022-10-31T08:28:13;34.08;;;14.98;;
26062;SDS011;13837;48.562;12.108;2022-10-31T08:30:41;26.00;;;14.68;;
26062;SDS011;13837;48.562;12.108;2022-10-31T08:33:25;26.10;;;14.90;;
26062;SDS011;13837;48.562;12.108;2022-10-31T08:36:21;14.95;;;13.50;;
26062;SDS011;13837;48.562;12.108;2022-10-31T08:38:52;15.23;;;13.02;;
26062;SDS011;13837;48.562;12.108;2022-10-31T08:41:18;14.10;;;12.70;;
26062;SDS011;13837;48.562;12.108;2022-10-31T08:43:44;21.13;;;14.27;;
26062;SDS011;13837;48.562;12.108;2022-10-31T08:46:10;80.40;;;18.20;;
26062;SDS011;13837;48.562;12.108;2022-10-31T08:48:36;52.63;;;15.43;;
26062;SDS011;13837;48.562;12.108;2022-10-31T08:51:03;26.85;;;15.82;;
26062;SDS011;13837;48.562;12.108;2022-10-31T08:53:29;20.17;;;15.18;;
26062;SDS011;13837;48.562;12.108;2022-10-31T08:56:13;33.25;;;16.17;;
26062;SDS011;13837;48.562;12.108;2022-10-31T08:58:40;57.55;;;18.13;;
26062;SDS011;13837;48.562;12.108;2022-10-31T09:01:07;38.10;;;17.92;;
26062;SDS011;13837;48.562;12.108;2022-10-31T09:03:34;29.83;;;17.80;;
26062;SDS011;13837;48.562;12.108;2022-10-31T09:06:01;56.92;;;17.73;;
26062;SDS011;13837;48.562;12.108;2022-10-31T09:08:31;20.33;;;15.55;;
26062;SDS011;13837;48.562;12.108;2022-10-31T09:10:59;22.50;;;16.30;;
26062;SDS011;13837;48.562;12.108;2022-10-31T09:13:44;25.08;;;16.75;;
26062;SDS011;13837;48.562;12.108;2022-10-31T09:16:24;25.48;;;17.15;;
26062;SDS011;13837;48.562;12.108;2022-10-31T09:18:50;35.00;;;17.80;;
26062;SDS011;13837;48.562;12.108;2022-10-31T09:21:16;30.45;;;17.75;;
26062;SDS011;13837;48.562;12.108;2022-10-31T09:23:42;32.95;;;16.80;;
26062;SDS011;13837;48.562;12.108;2022-10-31T09:26:08;23.70;;;14.80;;
26062;SDS011;13837;48.562;12.108;2022-10-31T09:28:40;40.42;;;16.50;;
26062;SDS011;13837;48.562;12.108;2022-10-31T09:31:08;18.27;;;14.47;;
26062;SDS011;13837;48.562;12.108;2022-10-31T09:33:46;18.25;;;13.30;;
26062;SDS011;13837;48.562;12.108;2022-10-31T09:36:41;18.48;;;11.95;;
26062;SDS011;13837;48.562;12.108;2022-10-31T09:39:12;23.15;;;12.23;;
26062;SDS011;13837;48.562;12.108;2022-10-31T09:41:48;16.55;;;12.52;;
26062;SDS011;13837;48.562;12.108;2022-10-31T09:44:47;17.60;;;12.35;;
26062;SDS011;13837;48.562;12.108;2022-10-31T09:50:29;36.67;;;11.25;;
26062;SDS011;13837;48.562;12.108;2022-10-31T09:55:56;10.73;;;9.00;;
26062;SDS011;13837;48.562;12.108;2022-10-31T09:58:25;12.55;;;9.90;;
26062;SDS011;13837;48.562;12.108;2022-10-31T10:00:54;10.65;;;9.65;;
26062;SDS011;13837;48.562;12.108;2022-10-31T10:03:39;10.98;;;9.68;;
26062;SDS011;13837;48.562;12.108;2022-10-31T10:06:29;12.95;;;9.95;;
26062;SDS011;13837;48.562;12.108;2022-10-31T10:09:20;13.40;;;10.93;;
26062;SDS011;13837;48.562;12.108;2022-10-31T10:12:22;19.55;;;11.55;;
26062;SDS011;13837;48.562;12.108;2022-10-31T10:17:58;13.45;;;11.50;;
26062;SDS011;13837;48.562;12.108;2022-10-31T10:26:02;15.65;;;11.35;;
26062;SDS011;13837;48.562;12.108;2022-10-31T10:28:38;18.92;;;11.50;;
26062;SDS011;13837;48.562;12.108;2022-10-31T10:36:38;26.88;;;12.52;;
26062;SDS011;13837;48.562;12.108;2022-10-31T10:39:05;14.25;;;12.88;;
26062;SDS011;13837;48.562;12.108;2022-10-31T10:41:39;15.82;;;14.20;;
26062;SDS011;13837;48.562;12.108;2022-10-31T10:44:09;32.58;;;15.00;;
26062;SDS011;13837;48.562;12.108;2022-10-31T10:57:56;21.80;;;14.98;;
26062;SDS011;13837;48.562;12.108;2022-10-31T11:00:26;20.42;;;14.48;;
26062;SDS011;13837;48.562;12.108;2022-10-31T11:02:57;42.47;;;16.10;;
26062;SDS011;13837;48.562;12.108;2022-10-31T11:05:24;28.90;;;15.25;;
26062;SDS011;13837;48.562;12.108;2022-10-31T11:07:51;15.32;;;13.52;;
26062;SDS011;13837;48.562;12.108;2022-10-31T11:10:17;13.82;;;12.50;;
26062;SDS011;13837;48.562;12.108;2022-10-31T11:12:44;17.73;;;12.60;;
26062;SDS011;13837;48.562;12.108;2022-10-31T11:15:23;14.27;;;12.77;;
26062;SDS011;13837;48.562;12.108;2022-10-31T11:17:51;14.60;;;13.13;;
26062;SDS011;13837;48.562;12.108;2022-10-31T11:22:45;14.65;;;12.38;;
26062;SDS011;13837;48.562;12.108;2022-10-31T11:27:45;13.95;;;12.50;;
26062;SDS011;13837;48.562;12.108;2022-10-31T11:30:12;72.18;;;17.92;;
26062;SDS011;13837;48.562;12.108;2022-10-31T11:32:48;18.50;;;13.40;;
26062;SDS011;13837;48.562;12.108;2022-10-31T11:35:17;14.93;;;13.45;;
26062;SDS011;13837;48.562;12.108;2022-10-31T11:37:46;16.15;;;13.40;;
26062;SDS011;13837;48.562;12.108;2022-10-31T11:40:21;15.73;;;13.10;;
26062;SDS011;13837;48.562;12.108;2022-10-31T11:42:49;16.38;;;13.23;;
26062;SDS011;13837;48.562;12.108;2022-10-31T11:45:31;16.08;;;13.60;;
26062;SDS011;13837;48.562;12.108;2022-10-31T11:47:59;13.57;;;12.32;;
26062;SDS011;13837;48.562;12.108;2022-10-31T11:50:39;15.75;;;14.18;;
26062;SDS011;13837;48.562;12.108;2022-10-31T11:53:14;16.35;;;14.15;;
26062;SDS011;13837;48.562;12.108;2022-10-31T11:56:03;15.30;;;13.77;;
26062;SDS011;13837;48.562;12.108;2022-10-31T11:58:35;14.88;;;13.38;;
26062;SDS011;13837;48.562;12.108;2022-10-31T12:01:00;14.60;;;12.95;;
26062;SDS011;13837;48.562;12.108;2022-10-31T12:03:28;16.92;;;15.23;;
26062;SDS011;13837;48.562;12.108;2022-10-31T12:06:21;15.73;;;14.02;;
26062;SDS011;13837;48.562;12.108;2022-10-31T12:08:54;15.10;;;13.35;;
26062;SDS011;13837;48.562;12.108;2022-10-31T12:11:42;15.85;;;13.73;;
26062;SDS011;13837;48.562;12.108;2022-10-31T12:30:26;17.45;;;14.50;;
26062;SDS011;13837;48.562;12.108;2022-10-31T12:50:01;19.50;;;16.13;;
26062;SDS011;13837;48.562;12.108;2022-10-31T13:01:12;23.45;;;17.77;;
26062;SDS011;13837;48.562;12.108;2022-10-31T13:03:47;18.90;;;16.92;;
26062;SDS011;13837;48.562;12.108;2022-10-31T13:06:24;18.50;;;16.58;;
26062;SDS011;13837;48.562;12.108;2022-10-31T13:09:30;18.52;;;15.57;;
26062;SDS011;13837;48.562;12.108;2022-10-31T13:11:53;249.73;;;222.30;;
26062;SDS011;13837;48.562;12.108;2022-10-31T13:14:25;152.60;;;128.13;;
26062;SDS011;13837;48.562;12.108;2022-10-31T13:16:55;176.38;;;143.00;;
26062;SDS011;13837;48.562;12.108;2022-10-31T13:19:23;112.72;;;95.88;;
26062;SDS011;13837;48.562;12.108;2022-10-31T13:22:03;105.80;;;89.80;;
26062;SDS011;13837;48.562;12.108;2022-10-31T13:27:22;18.63;;;16.33;;
26062;SDS011;13837;48.562;12.108;2022-10-31T13:30:04;18.92;;;15.27;;
26062;SDS011;13837;48.562;12.108;2022-10-31T13:32:49;24.60;;;16.50;;
26062;SDS011;13837;48.562;12.108;2022-10-31T13:35:40;25.33;;;20.70;;
26062;SDS011;13837;48.562;12.108;2022-10-31T13:46:24;21.55;;;19.20;;
26062;SDS011;13837;48.562;12.108;2022-10-31T13:48:59;22.10;;;18.63;;
26062;SDS011;13837;48.562;12.108;2022-10-31T13:51:26;24.35;;;21.02;;
26062;SDS011;13837;48.562;12.108;2022-10-31T13:56:29;28.13;;;20.10;;
26062;SDS011;13837;48.562;12.108;2022-10-31T13:59:12;23.17;;;19.50;;
26062;SDS011;13837;48.562;12.108;2022-10-31T14:02:00;24.42;;;17.92;;
26062;SDS011;13837;48.562;12.108;2022-10-31T14:04:28;22.23;;;17.93;;
26062;SDS011;13837;48.562;12.108;2022-10-31T14:07:18;22.27;;;17.98;;
26062;SDS011;13837;48.562;12.108;2022-10-31T14:10:06;20.20;;;17.58;;
26062;SDS011;13837;48.562;12.108;2022-10-31T14:12:47;22.92;;;17.33;;
26062;SDS011;13837;48.562;12.108;2022-10-31T14:15:18;19.63;;;17.27;;
26062;SDS011;13837;48.562;12.108;2022-10-31T14:17:48;18.13;;;16.33;;
26062;SDS011;13837;48.562;12.108;2022-10-31T14:22:42;19.33;;;17.08;;
26062;SDS011;13837;48.562;12.108;2022-10-31T14:25:28;25.30;;;18.98;;
26062;SDS011;13837;48.562;12.108;2022-10-31T14:27:59;20.45;;;15.68;;
26062;SDS011;13837;48.562;12.108;2022-10-31T14:30:27;20.73;;;16.37;;
26062;SDS011;13837;48.562;12.108;2022-10-31T14:33:01;20.77;;;16.98;;
26062;SDS011;13837;48.562;12.108;2022-10-31T14:35:44;18.20;;;16.15;;
26062;SDS011;13837;48.562;12.108;2022-10-31T14:38:30;21.60;;;17.95;;
26062;SDS011;13837;48.562;12.108;2022-10-31T14:52:27;24.42;;;21.10;;
26062;SDS011;13837;48.562;12.108;2022-10-31T14:54:53;22.00;;;18.40;;
26062;SDS011;13837;48.562;12.108;2022-10-31T14:59:54;30.17;;;21.20;;
26062;SDS011;13837;48.562;12.108;2022-10-31T15:02:24;23.85;;;20.13;;
26062;SDS011;13837;48.562;12.108;2022-10-31T15:05:07;24.85;;;19.42;;
26062;SDS011;13837;48.562;12.108;2022-10-31T15:07:34;27.20;;;19.83;;
26062;SDS011;13837;48.562;12.108;2022-10-31T15:10:01;29.10;;;22.25;;
26062;SDS011;13837;48.562;12.108;2022-10-31T15:12:31;34.88;;;24.52;;
26062;SDS011;13837;48.562;12.108;2022-10-31T15:15:10;31.02;;;21.27;;
26062;SDS011;13837;48.562;12.108;2022-10-31T15:17:43;26.25;;;19.73;;
26062;SDS011;13837;48.562;12.108;2022-10-31T15:20:24;26.90;;;21.35;;
26062;SDS011;13837;48.562;12.108;2022-10-31T15:22:51;31.38;;;22.08;;
26062;SDS011;13837;48.562;12.108;2022-10-31T15:25:21;30.50;;;21.15;;
26062;SDS011;13837;48.562;12.108;2022-10-31T15:27:49;31.17;;;22.17;;
26062;SDS011;13837;48.562;12.108;2022-10-31T15:30:20;29.30;;;21.65;;
26062;SDS011;13837;48.562;12.108;2022-10-31T15:32:47;28.02;;;21.02;;
26062;SDS011;13837;48.562;12.108;2022-10-31T15:35:22;28.30;;;21.90;;
26062;SDS011;13837;48.562;12.108;2022-10-31T15:37:52;25.98;;;21.48;;
26062;SDS011;13837;48.562;12.108;2022-10-31T15:40:18;32.60;;;24.52;;
26062;SDS011;13837;48.562;12.108;2022-10-31T15:42:50;29.58;;;23.90;;
26062;SDS011;13837;48.562;12.108;2022-10-31T15:45:24;33.47;;;24.48;;
26062;SDS011;13837;48.562;12.108;2022-10-31T15:48:03;35.03;;;24.43;;
26062;SDS011;13837;48.562;12.108;2022-10-31T15:50:46;34.65;;;24.85;;
26062;SDS011;13837;48.562;12.108;2022-10-31T15:53:22;35.70;;;25.45;;
26062;SDS011;13837;48.562;12.108;2022-10-31T15:55:57;29.40;;;24.00;;
26062;SDS011;13837;48.562;12.108;2022-10-31T15:58:26;33.45;;;24.20;;
26062;SDS011;13837;48.562;12.108;2022-10-31T16:01:00;34.42;;;26.52;;
26062;SDS011;13837;48.562;12.108;2022-10-31T16:03:31;32.67;;;26.08;;
26062;SDS011;13837;48.562;12.108;2022-10-31T16:05:59;39.28;;;26.75;;
26062;SDS011;13837;48.562;12.108;2022-10-31T16:10:54;40.20;;;28.42;;
26062;SDS011;13837;48.562;12.108;2022-10-31T16:13:53;37.67;;;27.40;;
26062;SDS011;13837;48.562;12.108;2022-10-31T16:16:53;37.28;;;28.38;;
26062;SDS011;13837;48.562;12.108;2022-10-31T16:19:23;35.72;;;27.45;;
26062;SDS011;13837;48.562;12.108;2022-10-31T16:22:03;37.08;;;28.25;;
26062;SDS011;13837;48.562;12.108;2022-10-31T16:24:35;38.67;;;28.45;;
26062;SDS011;13837;48.562;12.108;2022-10-31T16:27:24;36.92;;;28.17;;
26062;SDS011;13837;48.562;12.108;2022-10-31T16:29:54;40.35;;;29.23;;
26062;SDS011;13837;48.562;12.108;2022-10-31T16:32:35;40.20;;;29.77;;
26062;SDS011;13837;48.562;12.108;2022-10-31T16:35:25;41.58;;;28.60;;
26062;SDS011;13837;48.562;12.108;2022-10-31T16:37:54;37.53;;;29.15;;
26062;SDS011;13837;48.562;12.108;2022-10-31T16:40:20;38.20;;;29.48;;
26062;SDS011;13837;48.562;12.108;2022-10-31T16:42:46;40.78;;;30.73;;
26062;SDS011;13837;48.562;12.108;2022-10-31T16:45:31;44.65;;;33.40;;
26062;SDS011;13837;48.562;12.108;2022-10-31T16:48:03;39.95;;;33.25;;
26062;SDS011;13837;48.562;12.108;2022-10-31T16:50:30;44.05;;;33.47;;
26062;SDS011;13837;48.562;12.108;2022-10-31T16:52:57;40.58;;;31.25;;
26062;SDS011;13837;48.562;12.108;2022-10-31T16:55:23;39.58;;;30.83;;
26062;SDS011;13837;48.562;12.108;2022-10-31T16:57:52;43.00;;;31.25;;
26062;SDS011;13837;48.562;12.108;2022-10-31T17:00:21;42.30;;;31.45;;
26062;SDS011;13837;48.562;12.108;2022-10-31T17:02:50;57.58;;;39.20;;
26062;SDS011;13837;48.562;12.108;2022-10-31T17:05:18;81.05;;;48.13;;
26062;SDS011;13837;48.562;12.108;2022-10-31T17:07:45;125.43;;;72.35;;
26062;SDS011;13837;48.562;12.108;2022-10-31T17:10:11;113.03;;;64.38;;